Lorenzo, Illinois
Current Conditions -  °F | °C
As of 6:35 PM on Monday 22 Dec 2014 (Local Time) from KJOT Reporting Station
Moderate Rain Moderate Rain  
Wind Chill: 33°   Ceiling: 500
Heat Index: 40°   Visibility: 1.5mi
Dew Point: 39°   Wind: 12mph
Humidity: 97%   Direction: 130°SE
Pressure: 29.65"   Gusts: 17mph
Location:  41.3199°N, 88.0518°W
Report Text: KJOT 230035Z AUTO 13010G15KT 1 1/2SM RA OVC005 05/04 A2965 RMK AO2 P0001 T00450040
Loading
Personal Weather Stations






























Interactive Weather Map New forecast layout! Learn more

10-Day Weather Forecast

Advertisements
Track Severe Weather on mobile